Time;durP1;ratioP1;P1;durP2;ratioP2;P2;SDS_P1;SDS_P2;PMS_P1;PMS_P2;Temp;Humidity;BMP_temperature;BMP_pressure;BME280_temperature;BME280_humidity;BME280_pressure;Samples;Min_cycle;Max_cycle;Signal;HPM_P1;HPM_P2
2023/08/21 00:03:25;;;;;;;9.32;3.53;;;;;;;20.50;51.81;99922.28;10298430;28;20097;-74
2023/08/21 00:08:25;;;;;;;9.82;2.83;;;;;;;20.73;51.09;99951.03;10298323;28;20047;-73
2023/08/21 00:13:26;;;;;;;15.45;3.25;;;;;;;20.88;51.35;99988.28;10297638;28;20039;-74
2023/08/21 00:18:27;;;;;;;15.63;3.60;;;;;;;20.74;50.73;99971.56;10297251;28;20622;-74
2023/08/21 00:23:28;;;;;;;11.95;3.30;;;;;;;20.64;51.13;99981.34;10296790;28;20058;-74
2023/08/21 00:28:32;;;;;;;16.27;3.70;;;;;;;20.42;52.09;99982.00;10297080;28;20394;-74
2023/08/21 00:33:33;;;;;;;9.13;3.25;;;;;;;20.21;53.00;99986.19;10296416;28;20042;-74
2023/08/21 00:38:34;;;;;;;10.85;3.63;;;;;;;19.94;53.22;99968.94;10296414;28;20433;-74
2023/08/21 00:43:35;;;;;;;8.48;3.05;;;;;;;19.92;53.98;100001.53;10279199;28;20047;-74
2023/08/21 00:48:37;;;;;;;12.27;3.42;;;;;;;19.72;54.26;99984.94;10296164;28;20133;-74
2023/08/21 00:53:38;;;;;;;11.05;2.97;;;;;;;19.58;54.35;99995.91;10296512;28;20042;-74
2023/08/21 00:58:39;;;;;;;18.88;3.63;;;;;;;19.39;55.05;99976.38;10295778;28;20395;-74
2023/08/21 01:03:40;;;;;;;10.27;3.58;;;;;;;19.33;56.07;99993.47;10296490;28;20129;-74
2023/08/21 01:08:47;;;;;;;9.88;3.15;;;;;;;19.12;56.31;99959.88;10295560;28;20053;-74
2023/08/21 01:13:54;;;;;;;12.60;3.47;;;;;;;19.12;58.64;99983.28;10277624;28;20042;-74
2023/08/21 01:18:57;;;;;;;21.58;3.58;;;;;;;18.67;57.47;99936.16;10294186;28;20406;-74
2023/08/21 01:23:58;;;;;;;16.77;4.13;;;;;;;18.61;58.17;99942.47;10294351;28;20082;-73
2023/08/21 01:28:59;;;;;;;153.85;11.68;;;;;;;18.80;58.68;99942.41;10294102;28;20066;-73
2023/08/21 01:34:08;;;;;;;17.13;4.43;;;;;;;19.30;59.14;100007.41;10294546;28;20066;-73
2023/08/21 01:39:09;;;;;;;9.73;2.90;;;;;;;19.39;57.41;99999.81;10295208;28;20031;-75
2023/08/21 01:44:10;;;;;;;20.92;3.78;;;;;;;18.60;57.90;99851.22;10294245;28;20078;-73
2023/08/21 01:49:11;;;;;;;82.65;7.30;;;;;;;19.41;58.65;100000.38;10293372;28;20070;-73
2023/08/21 01:54:12;;;;;;;57.92;5.65;;;;;;;19.21;58.89;99998.03;10294488;28;20051;-73
2023/08/21 01:59:12;;;;;;;64.32;6.88;;;;;;;19.16;59.39;99997.91;10276858;28;20047;-73
2023/08/21 02:04:13;;;;;;;93.57;8.27;;;;;;;19.07;59.98;100010.09;10292896;28;20042;-73
2023/08/21 02:09:14;;;;;;;167.40;12.43;;;;;;;18.96;60.18;99997.41;10292514;28;20035;-73
2023/08/21 02:14:15;;;;;;;70.72;7.68;;;;;;;18.17;60.94;99879.19;10293047;28;20250;-73
2023/08/21 02:19:15;;;;;;;90.72;8.57;;;;;;;18.90;61.02;100018.00;10292050;28;20054;-73
2023/08/21 02:24:16;;;;;;;50.65;5.82;;;;;;;18.69;61.82;99995.09;10292684;28;20081;-72
2023/08/21 02:29:17;;;;;;;114.43;10.32;;;;;;;18.70;62.35;100027.16;10293077;28;20057;-73
2023/08/21 02:34:18;;;;;;;15.15;3.45;;;;;;;18.78;62.84;100023.34;10292404;28;20053;-72
2023/08/21 02:39:19;;;;;;;130.75;8.75;;;;;;;18.80;62.91;100025.81;10291819;28;20535;-73
2023/08/21 02:44:20;;;;;;;21.48;4.38;;;;;;;18.64;61.92;100008.44;10292538;28;20038;-73
2023/08/21 02:49:20;;;;;;;98.20;9.40;;;;;;;18.88;61.73;100030.88;10291453;28;20130;-73
2023/08/21 02:54:21;;;;;;;151.85;11.98;;;;;;;19.00;60.85;100036.31;10291315;28;20574;-73
2023/08/21 02:59:22;;;;;;;99.18;8.95;;;;;;;18.77;59.91;99959.00;10291161;28;20443;-73
2023/08/21 03:04:23;;;;;;;23.00;4.00;;;;;;;19.56;57.83;100024.16;10274355;28;20038;-74
2023/08/21 03:09:24;;;;;;;61.90;5.68;;;;;;;19.94;56.55;99975.16;10291358;28;20491;-73
2023/08/21 03:14:26;;;;;;;131.40;9.93;;;;;;;21.25;55.10;100031.00;10291376;28;20045;-73
2023/08/21 03:19:27;;;;;;;72.43;8.15;;;;;;;22.02;53.51;99965.31;10296435;28;20063;-73
2023/08/21 03:24:28;;;;;;;168.68;14.00;;;;;;;23.46;51.85;100035.22;10299491;28;20038;-74
2023/08/21 03:29:29;;;;;;;54.83;5.88;;;;;;;24.28;49.08;100027.53;10298669;28;20654;-73
2023/08/21 03:34:30;;;;;;;57.05;7.35;;;;;;;25.19;47.31;100032.34;10298617;28;20042;-74
2023/08/21 03:39:30;;;;;;;241.32;22.70;;;;;;;26.06;45.76;100036.81;10299413;28;20042;-74
2023/08/21 03:44:31;;;;;;;253.85;21.40;;;;;;;26.54;43.99;99975.31;10298279;28;20047;-74
2023/08/21 03:49:32;;;;;;;18.58;4.10;;;;;;;27.46;42.90;100028.28;10298531;28;20046;-74
2023/08/21 03:54:33;;;;;;;23.98;4.30;;;;;;;28.18;41.10;100011.91;10297778;28;20141;-74
2023/08/21 03:59:33;;;;;;;124.00;9.82;;;;;;;28.58;40.11;100018.78;10298140;28;20384;-74
2023/08/21 04:04:34;;;;;;;32.95;5.43;;;;;;;28.41;39.32;99982.97;10294852;28;20042;-74
2023/08/21 04:09:35;;;;;;;31.33;6.18;;;;;;;28.73;39.10;100034.13;10308053;28;20099;-74
2023/08/21 04:14:36;;;;;;;32.45;6.28;;;;;;;28.44;40.31;100024.16;10335906;28;20073;-74
2023/08/21 04:19:36;;;;;;;33.05;7.20;;;;;;;28.67;40.10;100027.94;10329946;28;20062;-74
2023/08/21 04:24:37;;;;;;;27.23;8.88;;;;;;;28.32;40.42;99971.03;10316932;28;20128;-73
2023/08/21 04:29:38;;;;;;;29.40;9.38;;;;;;;29.21;39.70;100017.53;10290974;28;20046;-74
2023/08/21 04:34:39;;;;;;;36.63;7.30;;;;;;;29.77;38.20;100012.97;10292329;28;20034;-76
2023/08/21 04:39:40;;;;;;;21.85;6.03;;;;;;;30.32;37.12;99998.44;10296504;28;20049;-75
2023/08/21 04:44:41;;;;;;;13.43;4.15;;;;;;;30.70;36.21;100002.47;10294191;28;20043;-75
2023/08/21 04:49:41;;;;;;;17.35;4.20;;;;;;;30.69;36.67;99964.38;10294681;28;20050;-75
2023/08/21 04:54:42;;;;;;;18.45;4.15;;;;;;;31.35;36.02;99997.59;10295313;28;20051;-75
2023/08/21 04:59:47;;;;;;;25.35;4.35;;;;;;;30.77;36.18;99973.81;10278337;28;20046;-75
2023/08/21 05:04:48;;;;;;;33.15;4.45;;;;;;;30.51;36.63;99996.34;10295060;28;20042;-75
2023/08/21 05:09:49;;;;;;;23.85;4.40;;;;;;;30.28;37.30;99997.44;10296490;28;20054;-74
2023/08/21 05:14:49;;;;;;;16.27;3.38;;;;;;;30.36;37.28;99996.69;10295585;28;20498;-75
2023/08/21 05:19:50;;;;;;;17.33;4.15;;;;;;;30.32;37.41;99990.22;10277741;28;20059;-75
2023/08/21 05:24:51;;;;;;;15.18;3.75;;;;;;;30.34;38.58;100009.91;10294454;28;20039;-75
2023/08/21 05:29:52;;;;;;;24.58;3.97;;;;;;;30.41;38.49;99972.72;10294464;28;20046;-75
2023/08/21 05:34:52;;;;;;;21.75;4.28;;;;;;;30.58;38.85;99947.38;10277871;28;20047;-75
2023/08/21 05:39:53;;;;;;;21.45;5.03;;;;;;;31.16;37.76;99986.81;10292964;28;20085;-75
2023/08/21 05:44:54;;;;;;;29.38;4.68;;;;;;;31.45;37.17;99985.56;10294209;28;20035;-75
2023/08/21 05:49:55;;;;;;;37.30;4.40;;;;;;;31.51;37.59;99930.19;10294152;28;20046;-74
2023/08/21 05:54:55;;;;;;;24.15;4.38;;;;;;;32.03;35.85;99971.53;10293471;28;20051;-75
2023/08/21 05:59:56;;;;;;;10.55;3.17;;;;;;;32.32;34.77;99986.63;10276239;28;20050;-75
2023/08/21 06:04:58;;;;;;;18.80;3.40;;;;;;;32.61;35.54;99979.66;10294048;28;20101;-75
2023/08/21 06:09:58;;;;;;;10.65;2.92;;;;;;;33.07;31.76;99992.75;10292910;28;20050;-75
2023/08/21 06:14:59;;;;;;;15.80;3.85;;;;;;;33.45;30.31;99972.72;10292950;28;20039;-75
2023/08/21 06:20:00;;;;;;;24.83;4.15;;;;;;;33.82;29.52;99978.56;10292837;28;20437;-74
2023/08/21 06:25:01;;;;;;;15.93;3.28;;;;;;;33.94;27.98;99975.88;10292803;28;20045;-74
2023/08/21 06:30:01;;;;;;;5.85;3.20;;;;;;;34.03;26.90;99965.66;10292733;28;20136;-75
2023/08/21 06:35:02;;;;;;;9.80;3.60;;;;;;;33.75;26.99;99924.00;10293454;28;20559;-74
2023/08/21 06:40:04;;;;;;;8.85;3.60;;;;;;;34.17;26.64;99972.88;10292274;28;20177;-74
2023/08/21 06:45:05;;;;;;;4.85;3.15;;;;;;;34.15;27.34;99936.56;10291438;28;20130;-74
2023/08/21 06:50:06;;;;;;;8.97;3.67;;;;;;;34.42;26.73;99971.03;10291969;28;20050;-74
2023/08/21 06:55:07;;;;;;;13.80;3.58;;;;;;;34.67;26.67;99961.78;10291339;28;20046;-75
2023/08/21 07:00:09;;;;;;;10.88;3.60;;;;;;;34.72;25.59;99950.50;10292010;28;20038;-75
2023/08/21 07:05:10;;;;;;;8.25;3.55;;;;;;;34.58;25.47;99914.13;10291672;28;20038;-74
2023/08/21 07:10:11;;;;;;;14.88;3.65;;;;;;;34.95;25.23;99939.06;10274264;28;20405;-74
2023/08/21 07:15:12;;;;;;;12.20;5.40;;;;;;;35.18;24.54;99931.19;10291571;28;20130;-74
2023/08/21 07:20:13;;;;;;;16.08;4.20;;;;;;;35.29;24.31;99917.75;10290859;28;20063;-74
2023/08/21 07:25:14;;;;;;;6.30;2.90;;;;;;;35.40;23.01;99922.47;10291321;28;20093;-74
2023/08/21 07:30:17;;;;;;;13.65;3.28;;;;;;;35.26;23.40;99910.97;10290571;28;20034;-75
2023/08/21 07:35:18;;;;;;;13.73;3.50;;;;;;;35.52;23.25;99932.72;10291241;28;20134;-74
2023/08/21 07:40:19;;;;;;;26.58;3.83;;;;;;;35.59;23.46;99901.78;10291167;28;20117;-75
2023/08/21 07:45:20;;;;;;;8.75;2.83;;;;;;;35.60;22.79;99918.03;10290549;28;20066;-74
2023/08/21 07:50:20;;;;;;;5.35;2.58;;;;;;;35.55;22.85;99870.47;10290797;28;20050;-73
2023/08/21 07:55:21;;;;;;;15.38;3.58;;;;;;;35.88;22.05;99911.75;10290932;28;20121;-75
2023/08/21 08:00:22;;;;;;;6.47;2.83;;;;;;;35.98;22.24;99910.44;10290762;28;20093;-74
2023/08/21 08:05:23;;;;;;;12.17;3.37;;;;;;;36.00;21.93;99903.41;10295544;28;20093;-77
2023/08/21 08:10:24;;;;;;;9.45;2.75;;;;;;;35.66;22.46;99849.53;10297835;28;20105;-74
2023/08/21 08:15:25;;;;;;;11.30;3.50;;;;;;;36.35;22.63;99897.34;10297768;28;20125;-74
2023/08/21 08:20:26;;;;;;;16.83;3.15;;;;;;;36.39;21.82;99892.72;10297113;28;20477;-74
2023/08/21 08:25:27;;;;;;;20.75;3.17;;;;;;;36.12;21.61;99827.97;10297669;28;20070;-75
2023/08/21 08:30:28;;;;;;;14.80;3.00;;;;;;;36.55;21.60;99892.78;10296263;28;20035;-76
2023/08/21 08:35:28;;;;;;;22.15;3.58;;;;;;;36.38;21.07;99880.03;10333442;28;20054;-75
2023/08/21 08:40:30;;;;;;;28.58;3.17;;;;;;;36.02;20.51;99825.66;10335865;28;20065;-75
2023/08/21 08:45:31;;;;;;;17.55;2.90;;;;;;;36.19;20.97;99853.03;10326596;28;20042;-75
2023/08/21 08:50:33;;;;;;;9.20;2.90;;;;;;;36.49;21.03;99869.25;10335090;28;20099;-74
2023/08/21 08:55:34;;;;;;;7.88;2.00;;;;;;;36.51;20.71;99867.78;10335129;28;20065;-75
2023/08/21 09:00:35;;;;;;;6.70;2.58;;;;;;;36.74;20.83;99865.22;10334903;28;20470;-75
2023/08/21 09:05:36;;;;;;;10.40;2.88;;;;;;;36.33;20.49;99795.34;10334790;28;20050;-76
2023/08/21 09:10:38;;;;;;;6.63;2.88;;;;;;;36.74;21.02;99859.69;10326319;28;20049;-74
2023/08/21 09:15:41;;;;;;;15.63;3.35;;;;;;;36.57;20.49;99843.44;10333722;28;20042;-74
2023/08/21 09:20:42;;;;;;;9.23;2.45;;;;;;;36.56;20.61;99794.78;10333523;28;20089;-75
2023/08/21 09:25:47;;;;;;;12.30;2.60;;;;;;;36.58;20.44;99775.06;10325673;28;20046;-74
2023/08/21 09:30:53;;;;;;;6.47;2.30;;;;;;;37.14;19.99;99844.88;10333906;28;20038;-78
2023/08/21 09:35:55;;;;;;;8.45;2.42;;;;;;;37.19;19.85;99830.75;10327805;28;20518;-75
2023/08/21 09:40:56;;;;;;;6.22;2.35;;;;;;;37.27;20.21;99812.34;10328320;28;20072;-75
2023/08/21 09:45:57;;;;;;;31.02;3.80;;;;;;;37.06;20.63;99771.09;10333246;28;20046;-75
2023/08/21 09:50:59;;;;;;;10.90;2.83;;;;;;;36.96;19.59;99771.63;10327537;28;20039;-75
2023/08/21 09:56:03;;;;;;;17.55;3.05;;;;;;;37.34;19.78;99820.81;10330681;28;20064;-75
2023/08/21 10:01:13;;;;;;;31.23;3.63;;;;;;;37.24;19.78;99816.63;10326042;28;20176;-76
2023/08/21 10:06:19;;;;;;;8.10;2.42;;;;;;;37.33;20.26;99810.09;10297123;28;20149;-74
2023/08/21 10:11:20;;;;;;;18.27;2.88;;;;;;;37.38;19.87;99805.06;10331963;28;20058;-76
2023/08/21 10:16:22;;;;;;;8.25;2.38;;;;;;;37.07;19.84;99753.34;10333270;28;20042;-74
2023/08/21 10:21:27;;;;;;;7.53;2.50;;;;;;;37.44;19.71;99786.19;10332800;28;20066;-74
2023/08/21 10:26:28;;;;;;;8.07;2.60;;;;;;;37.53;19.13;99792.38;10332479;28;20486;-75
2023/08/21 10:31:35;;;;;;;9.60;2.40;;;;;;;37.38;18.76;99765.50;10332180;28;20069;-74
2023/08/21 10:36:44;;;;;;;18.75;3.47;;;;;;;37.76;20.26;99791.66;10333266;28;20093;-75
2023/08/21 10:41:55;;;;;;;42.13;3.30;;;;;;;37.68;18.02;99785.94;10331775;28;20053;-75
2023/08/21 10:47:16;;;;;;;20.10;4.05;;;;;;;37.75;18.98;99782.50;10332998;28;20626;-75
2023/08/21 10:52:25;;;;;;;6.53;2.17;;;;;;;37.82;19.09;99773.56;10331037;28;20532;-75
2023/08/21 10:57:28;;;;;;;5.03;2.17;;;;;;;37.46;19.09;99704.38;10332532;28;20053;-75
2023/08/21 11:02:30;;;;;;;7.95;2.10;;;;;;;37.44;18.67;99703.88;10332099;28;20188;-74
2023/08/21 11:07:46;;;;;;;17.25;2.50;;;;;;;37.64;18.79;99729.66;10331936;28;20086;-76
2023/08/21 11:12:59;;;;;;;6.95;2.47;;;;;;;37.67;19.66;99764.16;10332643;28;20049;-75
2023/08/21 11:18:02;;;;;;;19.38;3.42;;;;;;;37.55;18.63;99759.56;10331825;28;20494;-78
2023/08/21 11:23:08;;;;;;;10.13;2.40;;;;;;;37.55;18.47;99754.03;10331713;28;20070;-75
2023/08/21 11:28:08;;;;;;;20.63;2.50;;;;;;;37.49;19.07;99735.28;10331494;28;20053;-75
2023/08/21 11:33:12;;;;;;;7.97;2.37;;;;;;;36.81;19.00;99648.72;10331496;28;20031;-76
2023/08/21 11:38:18;;;;;;;6.70;2.10;;;;;;;37.51;18.96;99733.72;10333658;28;20042;-74
2023/08/21 11:43:19;;;;;;;6.95;2.22;;;;;;;37.58;18.71;99727.56;10338842;28;20050;-75
2023/08/21 11:48:20;;;;;;;15.13;2.10;;;;;;;37.48;18.45;99726.16;10339018;28;20051;-76
2023/08/21 11:53:33;;;;;;;7.57;2.13;;;;;;;37.06;18.46;99663.13;10338353;28;20042;-75
2023/08/21 11:58:38;;;;;;;7.68;2.08;;;;;;;37.26;19.43;99694.41;10337920;28;20484;-74
2023/08/21 12:03:39;;;;;;;9.70;2.17;;;;;;;37.46;19.18;99714.63;10337840;28;20064;-74
2023/08/21 12:08:40;;;;;;;;;;;;;;;37.59;19.16;99709.75;10339367;28;20049;-77
2023/08/21 12:13:41;;;;;;;4.80;2.13;;;;;;;37.35;20.00;99694.19;10337458;28;19934;-75
2023/08/21 12:18:41;;;;;;;7.93;2.47;;;;;;;37.02;19.26;99651.19;10317982;28;20118;-75
2023/08/21 12:23:42;;;;;;;13.13;2.40;;;;;;;37.27;19.84;99681.34;10297774;28;20062;-74
2023/08/21 12:28:43;;;;;;;16.10;2.83;;;;;;;37.12;19.47;99675.50;10295251;28;20046;-75
2023/08/21 12:33:44;;;;;;;11.30;2.47;;;;;;;37.03;19.21;99691.53;10291185;28;20097;-76
2023/08/21 12:38:44;;;;;;;5.00;2.10;;;;;;;36.99;19.65;99674.03;10295413;28;20057;-74
2023/08/21 12:43:45;;;;;;;7.87;2.50;;;;;;;36.94;19.86;99663.22;10296290;28;20137;-75
2023/08/21 12:48:46;;;;;;;7.93;2.77;;;;;;;36.59;19.73;99618.94;10296002;28;20137;-74
2023/08/21 12:53:47;;;;;;;4.63;2.13;;;;;;;36.88;19.71;99661.91;10285047;28;20042;-74
2023/08/21 12:58:48;;;;;;;5.03;2.10;;;;;;;36.97;19.81;99681.88;10296674;28;20513;-75
2023/08/21 13:03:49;;;;;;;8.98;2.75;;;;;;;36.88;19.88;99664.69;10296554;28;20053;-74
2023/08/21 13:08:50;;;;;;;10.57;2.43;;;;;;;36.82;19.31;99674.44;10294798;28;20050;-74
2023/08/21 13:13:50;;;;;;;5.53;2.05;;;;;;;36.79;19.32;99673.19;10295052;28;20140;-74
2023/08/21 13:18:51;;;;;;;11.43;2.50;;;;;;;36.74;19.35;99665.97;10295082;28;20042;-75
2023/08/21 13:23:52;;;;;;;9.77;2.38;;;;;;;36.32;19.97;99611.22;10294392;28;20106;-75
2023/08/21 13:28:53;;;;;;;10.63;2.33;;;;;;;36.60;19.65;99676.69;10295217;28;20053;-74
2023/08/21 13:33:54;;;;;;;8.85;3.45;;;;;;;36.50;20.23;99675.28;10282448;28;20065;-74
2023/08/21 13:38:54;;;;;;;12.48;2.80;;;;;;;36.41;20.25;99666.34;10284465;28;20053;-74
2023/08/21 13:43:56;;;;;;;5.07;2.30;;;;;;;36.31;20.32;99655.81;10276283;28;20042;-74
2023/08/21 13:48:56;;;;;;;6.30;2.13;;;;;;;36.19;19.95;99639.31;10293790;28;20053;-74
2023/08/21 13:53:57;;;;;;;14.82;3.10;;;;;;;36.13;20.46;99647.09;10292544;28;20042;-73
2023/08/21 13:58:58;;;;;;;14.88;2.60;;;;;;;36.03;20.37;99639.31;10295661;28;20038;-76
2023/08/21 14:03:59;;;;;;;10.15;2.72;;;;;;;35.69;20.39;99594.63;10292282;28;20129;-74
2023/08/21 14:08:59;;;;;;;9.48;3.05;;;;;;;35.95;20.30;99645.81;10291674;28;20042;-74
2023/08/21 14:14:00;;;;;;;13.32;2.88;;;;;;;35.89;20.81;99646.06;10292877;28;20042;-74
2023/08/21 14:19:01;;;;;;;8.85;2.85;;;;;;;35.48;21.06;99574.69;10293186;28;20043;-75
2023/08/21 14:24:02;;;;;;;19.02;3.15;;;;;;;35.74;21.44;99641.31;10293260;28;20055;-74
2023/08/21 14:29:03;;;;;;;17.40;3.17;;;;;;;35.20;21.45;99576.31;10293391;28;20039;-75
2023/08/21 14:34:04;;;;;;;21.15;3.40;;;;;;;35.40;21.41;99638.00;10292664;28;20050;-74
2023/08/21 14:39:06;;;;;;;49.65;5.20;;;;;;;35.15;21.71;99612.47;10292119;28;20549;-74
2023/08/21 14:44:06;;;;;;;;;;;;;;;35.30;21.73;99641.28;10292706;28;20053;-74
2023/08/21 14:49:07;;;;;;;22.00;3.30;;;;;;;34.69;22.02;99600.03;10274384;28;20013;-74
2023/08/21 14:54:08;;;;;;;24.88;4.13;;;;;;;34.44;22.97;99583.50;10291799;28;20043;-74
2023/08/21 14:59:12;;;;;;;14.80;3.10;;;;;;;34.70;22.80;99637.50;10291737;28;20454;-74
2023/08/21 15:04:13;;;;;;;26.08;3.85;;;;;;;34.39;22.68;99630.59;10291672;28;20049;-74
2023/08/21 15:09:14;;;;;;;13.88;3.10;;;;;;;34.40;23.00;99654.25;10291103;28;20050;-74
2023/08/21 15:14:15;;;;;;;42.70;4.53;;;;;;;34.30;23.67;99668.50;10299949;28;20093;-74
2023/08/21 15:19:15;;;;;;;51.90;4.75;;;;;;;34.03;23.53;99632.19;10304893;28;20545;-74
2023/08/21 15:24:16;;;;;;;19.38;3.22;;;;;;;33.82;23.70;99642.47;10304968;28;20449;-74
2023/08/21 15:29:17;;;;;;;24.77;4.18;;;;;;;33.09;24.65;99565.91;10287264;28;20061;-74
2023/08/21 15:34:18;;;;;;;15.23;3.30;;;;;;;33.15;24.42;99592.88;10304754;28;20070;-74
2023/08/21 15:39:19;;;;;;;69.22;6.93;;;;;;;33.15;25.07;99636.91;10316407;28;20042;-74
2023/08/21 15:44:19;;;;;;;21.23;3.28;;;;;;;33.25;24.82;99685.22;10319641;28;20128;-75
2023/08/21 15:49:20;;;;;;;34.15;4.28;;;;;;;32.92;24.93;99661.16;10303687;28;20046;-75
2023/08/21 15:54:30;;;;;;;26.48;3.72;;;;;;;32.86;24.69;99684.50;10304250;28;20038;-74
2023/08/21 15:59:31;;;;;;;34.78;4.13;;;;;;;32.28;24.65;99634.66;10304009;28;20082;-74
2023/08/21 16:04:32;;;;;;;203.13;15.10;;;;;;;31.88;26.52;99622.34;10304054;28;20561;-74
2023/08/21 16:09:32;;;;;;;128.68;10.27;;;;;;;31.81;27.29;99667.59;10303857;28;20538;-75
2023/08/21 16:14:33;;;;;;;30.42;4.45;;;;;;;31.49;27.10;99679.09;10303322;28;20491;-74
2023/08/21 16:19:34;;;;;;;173.60;14.85;;;;;;;31.25;28.45;99702.31;10302662;28;20509;-74
2023/08/21 16:24:35;;;;;;;130.63;11.07;;;;;;;30.90;30.13;99704.19;10300224;28;20066;-74
2023/08/21 16:29:36;;;;;;;57.20;7.30;;;;;;;30.53;31.07;99710.97;10297593;28;20055;-74
2023/08/21 16:34:36;;;;;;;137.38;11.23;;;;;;;30.13;32.70;99702.72;10293021;28;20901;-75
2023/08/21 16:39:37;;;;;;;93.68;12.52;;;;;;;29.54;32.80;99664.47;10294405;28;20057;-74
2023/08/21 16:44:38;;;;;;;84.93;15.25;;;;;;;29.24;33.42;99660.53;10294595;28;20077;-74
2023/08/21 16:49:38;;;;;;;66.18;13.13;;;;;;;29.48;33.48;99742.31;10331679;28;20073;-74
2023/08/21 16:54:39;;;;;;;50.72;10.90;;;;;;;29.28;34.52;99732.63;10337032;28;20042;-75
2023/08/21 16:59:40;;;;;;;52.13;10.77;;;;;;;29.00;35.50;99740.06;10336787;28;20108;-74
2023/08/21 17:04:41;;;;;;;42.50;8.73;;;;;;;28.40;35.75;99678.09;10336257;28;20088;-74
2023/08/21 17:09:46;;;;;;;34.83;8.40;;;;;;;28.69;35.12;99740.69;10335507;28;20526;-74
2023/08/21 17:14:47;;;;;;;25.17;6.22;;;;;;;28.33;33.43;99670.28;10322727;28;20425;-74
2023/08/21 17:19:47;;;;;;;21.85;5.38;;;;;;;28.59;34.27;99738.13;10316417;28;20058;-73
2023/08/21 17:24:50;;;;;;;26.02;6.03;;;;;;;28.54;34.17;99733.59;10325570;28;20042;-73
2023/08/21 17:29:51;;;;;;;25.75;5.82;;;;;;;28.48;34.15;99734.78;10334077;28;20077;-73
2023/08/21 17:34:52;;;;;;;17.95;3.80;;;;;;;28.71;32.69;99752.09;10318140;28;20046;-73
2023/08/21 17:39:53;;;;;;;13.65;3.20;;;;;;;28.85;31.83;99752.91;10332869;28;20502;-73
2023/08/21 17:44:54;;;;;;;8.88;2.90;;;;;;;28.80;31.04;99719.41;10321432;28;20049;-73
2023/08/21 17:49:55;;;;;;;11.23;2.72;;;;;;;28.89;31.05;99732.03;10331302;28;20065;-73
2023/08/21 17:54:56;;;;;;;14.23;2.53;;;;;;;28.83;30.89;99727.00;10332552;28;20528;-74
2023/08/21 17:59:57;;;;;;;15.88;2.47;;;;;;;29.00;30.66;99749.06;10325986;28;20034;-73
2023/08/21 18:04:58;;;;;;;9.57;2.35;;;;;;;29.03;31.05;99753.16;10332715;28;20070;-73
2023/08/21 18:09:58;;;;;;;9.20;2.55;;;;;;;29.06;30.51;99752.53;10322413;28;20113;-73
2023/08/21 18:14:59;;;;;;;13.48;2.25;;;;;;;29.09;30.68;99747.25;10326550;28;20074;-74
2023/08/21 18:20:00;;;;;;;8.85;2.30;;;;;;;29.06;30.63;99741.59;10322250;28;20478;-73
2023/08/21 18:25:01;;;;;;;17.17;2.97;;;;;;;29.06;30.85;99736.94;10322120;28;20046;-74
2023/08/21 18:30:03;;;;;;;15.75;2.55;;;;;;;29.09;30.54;99747.25;10309822;28;20503;-75
2023/08/21 18:35:05;;;;;;;16.40;2.53;;;;;;;28.86;31.01;99727.19;10319543;28;20413;-75
2023/08/21 18:40:07;;;;;;;14.25;2.42;;;;;;;28.18;30.68;99619.50;10322469;28;20042;-74
2023/08/21 18:45:08;;;;;;;23.13;2.47;;;;;;;28.61;30.90;99714.84;10311148;28;20042;-74
2023/08/21 18:50:09;;;;;;;11.18;2.65;;;;;;;28.73;30.93;99732.69;10324872;28;20417;-74
2023/08/21 18:55:10;;;;;;;15.38;2.53;;;;;;;28.72;30.87;99745.53;10310246;28;20056;-72
2023/08/21 19:00:12;;;;;;;11.93;2.15;;;;;;;28.65;30.90;99745.91;10313526;28;20108;-74
2023/08/21 19:05:12;;;;;;;9.50;2.13;;;;;;;28.63;31.09;99756.34;10325547;28;20421;-74
2023/08/21 19:10:14;;;;;;;8.52;1.98;;;;;;;28.60;30.93;99762.44;10323159;28;20034;-74
2023/08/21 19:15:15;;;;;;;16.77;3.25;;;;;;;28.47;30.97;99751.47;10321217;28;20038;-74
2023/08/21 19:20:16;;;;;;;19.38;2.60;;;;;;;28.23;31.42;99728.63;10312384;28;20140;-75
2023/08/21 19:25:17;;;;;;;17.95;2.95;;;;;;;28.27;31.55;99761.63;10328322;28;20040;-74
2023/08/21 19:30:18;;;;;;;8.90;2.20;;;;;;;28.00;31.45;99729.59;10324221;28;20088;-75
2023/08/21 19:35:19;;;;;;;12.27;2.33;;;;;;;27.63;32.01;99690.31;10327566;28;20088;-74
2023/08/21 19:40:20;;;;;;;13.90;2.10;;;;;;;27.68;32.37;99720.25;10329916;28;20105;-75
2023/08/21 19:45:21;;;;;;;12.85;2.53;;;;;;;27.66;32.71;99744.28;10323100;28;20034;-74
2023/08/21 19:50:21;;;;;;;11.02;2.53;;;;;;;27.45;32.71;99734.78;10305107;28;20046;-75
2023/08/21 19:55:22;;;;;;;17.02;2.50;;;;;;;27.32;33.61;99739.06;10330441;28;20046;-74
2023/08/21 20:00:23;;;;;;;89.97;7.32;;;;;;;27.16;33.76;99737.63;10334490;28;20042;-74
2023/08/21 20:05:24;;;;;;;18.05;2.72;;;;;;;27.05;34.01;99739.66;10338649;28;20494;-75
2023/08/21 20:10:25;;;;;;;12.23;2.30;;;;;;;26.72;35.07;99722.34;10337560;28;20038;-75
2023/08/21 20:15:26;;;;;;;18.17;2.72;;;;;;;26.70;34.78;99727.28;10338205;28;20117;-75
2023/08/21 20:20:27;;;;;;;13.48;2.42;;;;;;;26.29;35.02;99671.28;10334856;28;20145;-74
2023/08/21 20:25:28;;;;;;;11.10;2.40;;;;;;;26.64;34.88;99735.50;10296946;28;20598;-74
2023/08/21 20:30:29;;;;;;;8.13;2.60;;;;;;;26.51;36.44;99732.66;10297144;28;20047;-75
2023/08/21 20:35:30;;;;;;;13.68;2.28;;;;;;;26.44;35.95;99740.31;10296512;28;20045;-74
2023/08/21 20:40:30;;;;;;;11.65;2.28;;;;;;;26.33;36.46;99723.28;10296380;28;20418;-74
2023/08/21 20:45:33;;;;;;;7.35;2.30;;;;;;;26.06;36.11;99707.47;10296116;28;20121;-74
2023/08/21 20:50:34;;;;;;;12.20;2.67;;;;;;;26.06;36.61;99737.41;10279210;28;20038;-75
2023/08/21 20:55:34;;;;;;;16.08;2.72;;;;;;;25.79;37.86;99716.13;10296896;28;20047;-74
2023/08/21 21:00:35;;;;;;;11.95;2.78;;;;;;;25.78;38.17;99734.31;10296171;28;20050;-75
2023/08/21 21:05:37;;;;;;;25.27;4.03;;;;;;;25.54;39.18;99741.56;10295736;28;20047;-75
2023/08/21 21:10:38;;;;;;;17.83;3.00;;;;;;;24.97;38.85;99660.31;10295248;28;20098;-75
2023/08/21 21:15:39;;;;;;;11.25;2.78;;;;;;;25.15;39.07;99712.44;10295683;28;20042;-75
2023/08/21 21:20:39;;;;;;;12.57;2.90;;;;;;;25.01;39.02;99707.59;10295099;28;20141;-74
2023/08/21 21:25:40;;;;;;;10.93;2.67;;;;;;;24.99;40.15;99715.19;10295762;28;20061;-74
2023/08/21 21:30:41;;;;;;;17.35;2.80;;;;;;;24.86;41.01;99728.56;10294552;28;20039;-74
2023/08/21 21:35:42;;;;;;;27.27;3.28;;;;;;;24.67;41.93;99709.34;10294819;28;20133;-75
2023/08/21 21:40:42;;;;;;;7.70;3.13;;;;;;;24.57;42.63;99723.78;10293986;28;20046;-75
2023/08/21 21:45:43;;;;;;;17.48;4.43;;;;;;;24.29;43.44;99717.00;10294630;28;20045;-75
2023/08/21 21:50:44;;;;;;;26.25;4.40;;;;;;;23.94;44.63;99715.16;10294599;28;20094;-75
2023/08/21 21:55:45;;;;;;;34.20;5.68;;;;;;;23.08;45.13;99609.03;10294280;28;20395;-74
2023/08/21 22:00:46;;;;;;;24.02;5.03;;;;;;;23.69;46.34;99714.00;10293736;28;20483;-74
2023/08/21 22:05:47;;;;;;;16.88;3.58;;;;;;;23.20;46.80;99668.41;10293748;28;20153;-74
2023/08/21 22:10:48;;;;;;;16.40;3.38;;;;;;;23.26;47.58;99701.75;10293340;28;20043;-74
2023/08/21 22:15:49;;;;;;;16.00;6.72;;;;;;;23.16;47.53;99686.28;10293209;28;20101;-74
2023/08/21 22:20:49;;;;;;;11.70;4.38;;;;;;;23.23;48.08;99703.91;10292182;28;20058;-74
2023/08/21 22:25:50;;;;;;;17.73;4.75;;;;;;;22.91;49.08;99681.56;10292931;28;20048;-74
2023/08/21 22:30:51;;;;;;;15.30;4.50;;;;;;;22.42;49.46;99603.41;10292176;28;20067;-74
2023/08/21 22:35:52;;;;;;;23.02;4.43;;;;;;;22.44;49.69;99625.63;10292430;28;20077;-75
2023/08/21 22:40:52;;;;;;;19.05;5.82;;;;;;;22.16;50.58;99624.88;10292348;28;20046;-74
2023/08/21 22:45:54;;;;;;;22.15;6.65;;;;;;;22.05;50.96;99620.50;10292395;28;20038;-74
2023/08/21 22:50:55;;;;;;;11.88;5.35;;;;;;;22.15;51.79;99685.47;10292133;28;20046;-74
2023/08/21 22:55:56;;;;;;;11.43;4.50;;;;;;;22.16;52.41;99692.50;10292975;28;20442;-75
2023/08/21 23:00:57;;;;;;;25.95;5.97;;;;;;;22.08;52.44;99699.22;10290423;28;20046;-74
2023/08/21 23:05:59;;;;;;;17.40;5.05;;;;;;;21.87;52.71;99682.03;10291760;28;20054;-76